createdAt,value
2022-12-13T00:01:47.007Z,13.70
2022-12-13T00:04:15.751Z,11.20
2022-12-13T00:06:43.930Z,11.37
2022-12-13T00:09:13.763Z,12.07
2022-12-13T00:11:41.846Z,13.33
2022-12-13T00:14:11.090Z,11.37
2022-12-13T00:16:40.921Z,13.73
2022-12-13T00:19:08.939Z,11.27
2022-12-13T00:21:36.965Z,13.53
2022-12-13T00:24:08.492Z,15.03
2022-12-13T00:26:36.702Z,18.23
2022-12-13T00:29:07.454Z,18.50
2022-12-13T00:31:58.852Z,21.77
2022-12-13T00:34:26.334Z,20.53
2022-12-13T00:36:54.944Z,20.70
2022-12-13T00:39:23.931Z,19.67
2022-12-13T00:41:52.051Z,23.67
2022-12-13T00:44:20.475Z,25.27
2022-12-13T00:46:48.622Z,23.40
2022-12-13T00:49:17.194Z,21.57
2022-12-13T00:51:48.243Z,23.87
2022-12-13T00:54:17.283Z,24.53
2022-12-13T00:56:45.277Z,24.93
2022-12-13T00:59:15.872Z,25.23
2022-12-13T01:01:44.063Z,26.10
2022-12-13T01:04:12.781Z,29.10
2022-12-13T01:06:42.270Z,26.03
2022-12-13T01:09:17.171Z,27.73
2022-12-13T01:11:46.356Z,30.13
2022-12-13T01:14:14.765Z,23.67
2022-12-13T01:16:42.856Z,26.30
2022-12-13T01:19:10.987Z,25.90
2022-12-13T01:21:39.775Z,20.87
2022-12-13T01:24:08.913Z,27.17
2022-12-13T01:26:38.491Z,25.40
2022-12-13T01:29:06.614Z,25.23
2022-12-13T01:31:34.948Z,23.40
2022-12-13T01:34:10.255Z,21.33
2022-12-13T01:36:39.109Z,22.23
2022-12-13T01:39:14.691Z,27.13
2022-12-13T01:41:45.182Z,24.70
2022-12-13T01:44:46.278Z,23.97
2022-12-13T01:47:16.220Z,27.43
2022-12-13T01:49:44.497Z,23.17
2022-12-13T01:52:15.893Z,23.30
2022-12-13T01:54:50.099Z,29.77
2022-12-13T01:57:21.591Z,23.50
2022-12-13T01:59:51.427Z,23.10
2022-12-13T02:02:19.598Z,25.50
2022-12-13T02:04:54.446Z,21.93
2022-12-13T02:07:27.629Z,22.43
2022-12-13T02:09:58.891Z,25.70
2022-12-13T02:12:30.499Z,22.20
2022-12-13T02:15:00.902Z,25.13
2022-12-13T02:17:45.345Z,22.97
2022-12-13T02:20:49.638Z,26.33
2022-12-13T02:23:50.521Z,24.27
2022-12-13T02:26:41.663Z,25.03
2022-12-13T02:29:38.105Z,26.73
2022-12-13T02:32:16.663Z,21.87
2022-12-13T02:34:50.437Z,21.97
2022-12-13T02:37:25.374Z,17.43
2022-12-13T02:40:01.842Z,21.57
2022-12-13T02:42:35.945Z,27.60
2022-12-13T02:45:08.904Z,24.33
2022-12-13T02:47:43.379Z,20.13
2022-12-13T02:50:14.936Z,23.67
2022-12-13T02:52:46.498Z,21.07
2022-12-13T02:55:17.536Z,23.67
2022-12-13T02:57:48.627Z,21.23
2022-12-13T03:00:19.379Z,20.50
2022-12-13T03:03:00.968Z,19.97
2022-12-13T03:05:59.575Z,23.03
2022-12-13T03:08:34.367Z,23.60
2022-12-13T03:11:07.360Z,25.63
2022-12-13T03:13:44.469Z,21.63
2022-12-13T03:16:23.486Z,21.27
2022-12-13T03:18:54.402Z,22.50
2022-12-13T03:21:22.461Z,21.03
2022-12-13T03:23:50.485Z,24.00
2022-12-13T03:26:21.915Z,20.97
2022-12-13T03:28:50.615Z,24.47
2022-12-13T03:31:19.017Z,22.30
2022-12-13T03:33:47.551Z,27.07
2022-12-13T03:36:18.932Z,22.80
2022-12-13T03:38:47.545Z,24.43
2022-12-13T03:41:18.027Z,24.10
2022-12-13T03:43:46.850Z,23.30
2022-12-13T03:46:14.883Z,25.03
2022-12-13T03:48:42.941Z,18.50
2022-12-13T03:51:10.981Z,22.03
2022-12-13T03:53:40.389Z,22.60
2022-12-13T03:56:08.883Z,23.47
2022-12-13T03:58:38.413Z,20.43
2022-12-13T04:01:08.234Z,25.03
2022-12-13T04:03:36.478Z,23.20
2022-12-13T04:06:04.960Z,21.30
2022-12-13T04:08:33.066Z,20.87
2022-12-13T04:11:23.644Z,21.70
2022-12-13T04:13:50.785Z,24.43
2022-12-13T04:16:18.908Z,23.90
2022-12-13T04:18:46.961Z,20.97
2022-12-13T04:21:15.054Z,23.43
2022-12-13T04:23:43.061Z,26.33
2022-12-13T04:26:12.576Z,25.87
2022-12-13T04:28:40.619Z,25.13
2022-12-13T04:31:08.775Z,25.70
2022-12-13T04:33:36.876Z,21.97
2022-12-13T04:36:05.282Z,24.53
2022-12-13T04:38:33.329Z,24.03
2022-12-13T04:41:17.304Z,26.40
2022-12-13T04:43:45.668Z,24.13
2022-12-13T04:46:13.719Z,22.33
2022-12-13T04:48:41.748Z,27.67
2022-12-13T04:51:09.777Z,26.03
2022-12-13T04:53:37.785Z,23.77
2022-12-13T04:56:06.902Z,22.70
2022-12-13T04:58:36.305Z,20.90
2022-12-13T05:01:07.933Z,21.93
2022-12-13T05:03:36.384Z,21.57
2022-12-13T05:06:06.605Z,25.37
2022-12-13T05:08:54.641Z,27.57
2022-12-13T05:11:36.020Z,21.00
2022-12-13T05:14:05.693Z,22.97
2022-12-13T05:16:33.769Z,25.33
2022-12-13T05:19:01.829Z,21.40
2022-12-13T05:21:29.836Z,24.63
2022-12-13T05:23:57.876Z,23.67
2022-12-13T05:26:25.908Z,25.43
2022-12-13T05:28:53.888Z,21.17
2022-12-13T05:31:24.160Z,21.40
2022-12-13T05:33:52.458Z,24.03
2022-12-13T05:36:22.514Z,20.43
2022-12-13T05:38:50.662Z,23.37
2022-12-13T05:41:21.715Z,21.90
2022-12-13T05:43:49.861Z,20.50
2022-12-13T05:46:18.257Z,20.87
2022-12-13T05:48:47.802Z,18.87
2022-12-13T05:51:15.861Z,20.23
2022-12-13T05:53:47.339Z,19.97
2022-12-13T05:56:23.217Z,19.53
2022-12-13T05:58:53.339Z,20.70
2022-12-13T06:01:21.758Z,23.60
2022-12-13T06:03:51.183Z,20.70
2022-12-13T06:06:19.213Z,20.77
2022-12-13T06:08:47.223Z,19.10
2022-12-13T06:11:31.729Z,21.77
2022-12-13T06:14:01.297Z,18.20
2022-12-13T06:16:29.610Z,17.33
2022-12-13T06:19:04.394Z,22.20
2022-12-13T06:21:41.400Z,22.70
2022-12-13T06:24:14.841Z,21.53
2022-12-13T06:26:45.084Z,19.20
2022-12-13T06:29:23.714Z,18.83
2022-12-13T06:32:02.275Z,20.30
2022-12-13T06:34:33.639Z,18.50
2022-12-13T06:37:01.897Z,20.43
2022-12-13T06:39:33.244Z,17.27
2022-12-13T06:42:02.675Z,21.50
2022-12-13T06:44:30.753Z,18.00
2022-12-13T06:47:10.639Z,20.67
2022-12-13T06:49:44.183Z,19.43
2022-12-13T06:52:14.071Z,19.07
2022-12-13T06:54:42.672Z,18.87
2022-12-13T06:57:11.047Z,17.07
2022-12-13T06:59:39.762Z,21.17
2022-12-13T07:02:15.288Z,21.93
2022-12-13T07:04:55.857Z,17.63
2022-12-13T07:07:25.152Z,21.87
2022-12-13T07:09:53.533Z,23.80
2022-12-13T07:12:21.934Z,20.07
2022-12-13T07:14:50.030Z,19.37
2022-12-13T07:17:32.583Z,22.60
2022-12-13T07:20:07.960Z,20.50
2022-12-13T07:22:42.903Z,18.57
2022-12-13T07:25:28.346Z,21.00
2022-12-13T07:28:03.247Z,20.10
2022-12-13T07:30:33.637Z,19.67
2022-12-13T07:33:02.566Z,21.13
2022-12-13T07:35:37.177Z,20.20
2022-12-13T07:38:05.641Z,22.97
2022-12-13T07:40:34.596Z,20.83
2022-12-13T07:43:02.627Z,18.63
2022-12-13T07:45:30.784Z,21.77
2022-12-13T07:47:58.818Z,22.07
2022-12-13T07:50:27.355Z,19.47
2022-12-13T07:53:08.190Z,21.40
2022-12-13T07:55:36.842Z,23.57
2022-12-13T07:58:06.961Z,20.83
2022-12-13T08:00:35.258Z,19.93
2022-12-13T08:03:03.317Z,20.13
2022-12-13T08:05:38.051Z,16.00
2022-12-13T08:08:11.763Z,18.00
2022-12-13T08:10:40.278Z,22.87
2022-12-13T08:13:08.358Z,18.33
2022-12-13T08:15:36.325Z,18.03
2022-12-13T08:18:05.110Z,18.50
2022-12-13T08:20:33.209Z,18.07
2022-12-13T08:23:02.244Z,19.13
2022-12-13T08:25:32.646Z,18.60
2022-12-13T08:28:01.611Z,19.63
2022-12-13T08:30:32.340Z,15.20
2022-12-13T08:33:05.083Z,17.73
2022-12-13T08:35:34.925Z,18.17
2022-12-13T08:38:03.627Z,17.43
2022-12-13T08:40:33.384Z,13.93
2022-12-13T08:43:01.383Z,17.87
2022-12-13T08:45:29.662Z,16.60
2022-12-13T08:48:00.125Z,17.53
2022-12-13T08:50:28.728Z,21.43
2022-12-13T08:52:56.890Z,18.57
2022-12-13T08:55:31.302Z,16.30
2022-12-13T08:58:08.389Z,13.77
2022-12-13T09:00:37.188Z,13.90
2022-12-13T09:03:06.219Z,14.33
2022-12-13T09:05:38.345Z,15.87
2022-12-13T09:08:22.889Z,14.83
2022-12-13T09:11:00.617Z,11.60
2022-12-13T09:13:33.015Z,12.87
2022-12-13T09:16:05.986Z,12.30
2022-12-13T09:18:42.652Z,12.33
2022-12-13T09:21:12.718Z,11.30
2022-12-13T09:23:46.277Z,13.43
2022-12-13T09:26:16.423Z,12.03
2022-12-13T09:28:45.968Z,12.07
2022-12-13T09:31:15.825Z,12.37
2022-12-13T09:33:44.243Z,13.63
2022-12-13T09:36:14.531Z,14.67
2022-12-13T09:38:42.931Z,13.97
2022-12-13T09:41:20.138Z,14.00
2022-12-13T09:44:01.297Z,12.33
2022-12-13T09:46:34.632Z,14.83
2022-12-13T09:49:23.288Z,12.50
2022-12-13T09:52:10.187Z,9.87
2022-12-13T09:54:48.996Z,10.50
2022-12-13T09:57:32.431Z,10.83
2022-12-13T10:00:05.701Z,11.97
2022-12-13T10:02:43.323Z,10.03
2022-12-13T10:05:22.913Z,13.90
2022-12-13T10:07:54.162Z,12.20
2022-12-13T10:10:22.881Z,12.47
2022-12-13T10:12:56.889Z,10.07
2022-12-13T10:15:26.713Z,8.33
2022-12-13T10:17:56.615Z,12.73
2022-12-13T10:20:28.858Z,12.50
2022-12-13T10:23:31.236Z,11.23
2022-12-13T10:25:51.556Z,11.43
2022-12-13T10:28:26.452Z,11.57
2022-12-13T10:30:54.551Z,12.17
2022-12-13T10:33:30.592Z,10.93
2022-12-13T10:36:12.495Z,11.10
2022-12-13T10:38:42.812Z,9.57
2022-12-13T10:41:31.401Z,8.67
2022-12-13T10:44:11.264Z,9.70
2022-12-13T10:46:40.472Z,11.50
2022-12-13T10:49:18.431Z,14.07
2022-12-13T10:51:46.971Z,13.40
2022-12-13T10:54:20.629Z,13.27
2022-12-13T10:56:53.910Z,8.50
2022-12-13T10:59:28.468Z,9.53
2022-12-13T11:01:56.498Z,10.50
2022-12-13T11:04:31.442Z,10.50
2022-12-13T11:07:01.339Z,13.10
2022-12-13T11:09:38.366Z,9.63
2022-12-13T11:12:15.106Z,9.63
2022-12-13T11:14:51.468Z,9.57
2022-12-13T11:17:23.912Z,10.57
2022-12-13T11:19:55.027Z,9.70
2022-12-13T11:22:26.488Z,10.17
2022-12-13T11:25:00.679Z,11.77
2022-12-13T11:27:56.343Z,8.63
2022-12-13T11:30:27.830Z,9.57
2022-12-13T11:33:26.206Z,9.70
2022-12-13T11:36:09.392Z,11.37
2022-12-13T11:38:59.811Z,8.77
2022-12-13T11:41:33.070Z,14.93
2022-12-13T11:44:05.319Z,11.10
2022-12-13T11:46:41.397Z,11.00
2022-12-13T11:49:17.957Z,11.77
2022-12-13T11:51:51.700Z,14.70
2022-12-13T11:54:27.165Z,14.27
2022-12-13T11:57:00.345Z,11.93
2022-12-13T11:59:40.110Z,14.87
2022-12-13T12:02:17.732Z,13.20
2022-12-13T12:04:51.551Z,12.70
2022-12-13T12:07:33.631Z,14.00
2022-12-13T12:10:08.067Z,12.50
2022-12-13T12:12:37.686Z,17.37
2022-12-13T12:15:16.222Z,14.50
2022-12-13T12:17:45.018Z,12.90
2022-12-13T12:20:24.057Z,15.33
2022-12-13T12:23:02.714Z,14.47
2022-12-13T12:25:38.431Z,11.73
2022-12-13T12:28:21.221Z,12.80
2022-12-13T12:30:57.201Z,14.03
2022-12-13T12:33:36.085Z,14.67
2022-12-13T12:36:27.110Z,16.20
2022-12-13T12:39:26.606Z,15.10
2022-12-13T12:42:07.825Z,13.23
2022-12-13T12:44:47.450Z,16.03
2022-12-13T12:50:35.126Z,13.60
2022-12-13T12:53:16.174Z,10.80
2022-12-13T12:55:55.480Z,11.70
2022-12-13T12:58:29.604Z,16.17
2022-12-13T13:01:12.970Z,15.03
2022-12-13T13:03:43.328Z,12.07
2022-12-13T13:06:15.624Z,15.40
2022-12-13T13:08:51.670Z,13.20
2022-12-13T13:11:26.251Z,12.40
2022-12-13T13:14:08.284Z,14.77
2022-12-13T13:16:39.128Z,12.27
2022-12-13T13:19:27.372Z,12.03
2022-12-13T13:22:01.423Z,13.67
2022-12-13T13:24:31.601Z,9.20
2022-12-13T13:27:28.907Z,11.53
2022-12-13T13:30:07.335Z,10.13
2022-12-13T13:32:40.736Z,12.97
2022-12-13T13:35:53.335Z,10.97
2022-12-13T13:39:01.725Z,8.77
2022-12-13T13:42:09.078Z,12.57
2022-12-13T13:45:06.805Z,10.53
2022-12-13T13:47:44.489Z,9.73
2022-12-13T13:51:00.121Z,10.87
2022-12-13T13:53:57.779Z,11.97
2022-12-13T13:56:57.065Z,12.37
2022-12-13T14:00:19.844Z,9.90
2022-12-13T14:03:41.934Z,9.87
2022-12-13T14:06:46.485Z,10.77
2022-12-13T14:09:49.066Z,8.77
2022-12-13T14:12:53.750Z,9.80
2022-12-13T14:16:04.887Z,9.23
2022-12-13T14:19:12.415Z,11.27
2022-12-13T14:21:50.631Z,8.63
2022-12-13T14:24:25.965Z,10.10
2022-12-13T14:27:14.582Z,10.20
2022-12-13T14:29:48.564Z,10.53
2022-12-13T14:32:29.975Z,11.60
2022-12-13T14:35:26.106Z,9.83
2022-12-13T14:37:57.765Z,10.90
2022-12-13T14:40:30.062Z,13.67
2022-12-13T14:42:59.157Z,11.03
2022-12-13T14:45:29.553Z,11.77
2022-12-13T14:47:59.765Z,10.07
2022-12-13T14:50:33.039Z,10.13
2022-12-13T14:53:03.124Z,10.23
2022-12-13T14:55:33.278Z,8.53
2022-12-13T14:58:02.233Z,17.70
2022-12-13T15:00:33.689Z,11.93
2022-12-13T15:03:03.462Z,11.47
2022-12-13T15:05:35.257Z,11.70
2022-12-13T15:08:10.666Z,13.93
2022-12-13T15:10:41.859Z,11.17
2022-12-13T15:13:29.404Z,10.33
2022-12-13T15:16:01.241Z,10.97
2022-12-13T15:18:30.999Z,10.90
2022-12-13T15:21:00.427Z,12.30
2022-12-13T15:23:31.373Z,13.43
2022-12-13T15:26:02.098Z,12.30
2022-12-13T15:28:34.044Z,12.80
2022-12-13T15:31:03.279Z,11.40
2022-12-13T15:33:36.561Z,11.57
2022-12-13T15:36:11.685Z,14.90
2022-12-13T15:38:43.429Z,12.13
2022-12-13T15:41:18.963Z,13.10
2022-12-13T15:43:51.294Z,13.27
2022-12-13T15:46:26.799Z,15.37
2022-12-13T15:48:56.990Z,13.20
2022-12-13T15:51:30.033Z,12.23
2022-12-13T15:54:04.219Z,13.67
2022-12-13T15:56:35.478Z,13.60
2022-12-13T15:59:05.401Z,17.33
2022-12-13T16:01:35.984Z,17.70
2022-12-13T16:04:05.482Z,15.00
2022-12-13T16:06:35.535Z,17.07
2022-12-13T16:09:07.917Z,17.83
2022-12-13T16:11:40.371Z,18.40
2022-12-13T16:14:40.147Z,17.50
2022-12-13T16:17:24.477Z,19.50
2022-12-13T16:19:53.273Z,17.20
2022-12-13T16:22:24.166Z,19.50
2022-12-13T16:24:53.109Z,13.53
2022-12-13T16:27:21.588Z,12.80
2022-12-13T16:29:49.719Z,29.07
2022-12-13T16:32:17.772Z,27.60
2022-12-13T16:34:46.448Z,23.13
2022-12-13T16:37:26.361Z,30.53
2022-12-13T16:39:56.664Z,33.03
2022-12-13T16:42:26.572Z,33.83
2022-12-13T16:45:11.602Z,30.67
2022-12-13T16:47:48.914Z,28.43
2022-12-13T16:50:19.706Z,26.77
2022-12-13T16:52:48.714Z,15.70
2022-12-13T16:55:18.217Z,14.40
2022-12-13T16:57:55.844Z,17.33
2022-12-13T17:00:24.023Z,17.17
2022-12-13T17:02:52.094Z,14.13
2022-12-13T17:05:20.792Z,14.37
2022-12-13T17:07:48.955Z,17.07
2022-12-13T17:10:19.299Z,15.67
2022-12-13T17:12:47.372Z,15.30
2022-12-13T17:15:15.985Z,16.40
2022-12-13T17:17:46.380Z,20.47
2022-12-13T17:20:16.509Z,22.30
2022-12-13T17:22:45.865Z,26.20
2022-12-13T17:25:14.415Z,20.70
2022-12-13T17:27:45.663Z,18.50
2022-12-13T17:30:16.965Z,16.67
2022-12-13T17:32:45.053Z,16.70
2022-12-13T17:35:17.916Z,16.67
2022-12-13T17:37:46.672Z,15.47
2022-12-13T17:40:14.689Z,25.23
2022-12-13T17:42:45.318Z,21.07
2022-12-13T17:45:13.475Z,20.90
2022-12-13T17:47:42.750Z,18.30
2022-12-13T17:50:11.087Z,18.20
2022-12-13T17:52:39.745Z,14.13
2022-12-13T17:55:11.208Z,18.23
2022-12-13T17:57:44.412Z,20.03
2022-12-13T18:00:14.772Z,16.90
2022-12-13T18:02:43.037Z,16.67
2022-12-13T18:05:25.568Z,14.90
2022-12-13T18:07:53.651Z,15.73
2022-12-13T18:10:26.365Z,21.07
2022-12-13T18:12:59.139Z,18.83
2022-12-13T18:15:27.466Z,18.57
2022-12-13T18:18:13.716Z,19.03
2022-12-13T18:20:42.963Z,21.87
2022-12-13T18:23:11.373Z,17.33
2022-12-13T18:25:40.228Z,18.03
2022-12-13T18:28:10.644Z,20.70
2022-12-13T18:30:39.573Z,15.80
2022-12-13T18:33:07.626Z,14.97
2022-12-13T18:35:35.684Z,18.43
2022-12-13T18:38:03.696Z,18.33
2022-12-13T18:40:32.316Z,18.73
2022-12-13T18:43:00.318Z,22.87
2022-12-13T18:45:29.735Z,20.20
2022-12-13T18:47:57.737Z,13.77
2022-12-13T18:50:25.878Z,17.80
2022-12-13T18:52:53.958Z,19.73
2022-12-13T18:55:22.302Z,20.37
2022-12-13T18:57:51.827Z,15.53
2022-12-13T19:00:20.817Z,17.43
2022-12-13T19:02:50.321Z,19.20
2022-12-13T19:05:18.613Z,16.13
2022-12-13T19:07:46.599Z,15.10
2022-12-13T19:10:14.645Z,12.13
2022-12-13T19:12:42.679Z,16.30
2022-12-13T19:15:12.854Z,17.30
2022-12-13T19:17:40.860Z,14.87
2022-12-13T19:20:11.366Z,15.07
2022-12-13T19:22:39.422Z,14.87
2022-12-13T19:25:09.058Z,17.47
2022-12-13T19:27:37.270Z,16.47
2022-12-13T19:30:06.441Z,14.53
2022-12-13T19:32:34.445Z,14.20
2022-12-13T19:35:02.531Z,13.00
2022-12-13T19:37:32.112Z,19.23
2022-12-13T19:40:00.148Z,15.90
2022-12-13T19:42:28.265Z,15.40
2022-12-13T19:44:56.333Z,14.40
2022-12-13T19:47:24.368Z,14.87
2022-12-13T19:49:52.413Z,17.80
2022-12-13T19:52:20.379Z,16.50
2022-12-13T19:54:49.782Z,18.53
2022-12-13T19:57:17.826Z,14.33
2022-12-13T19:59:45.893Z,14.73
2022-12-13T20:02:15.901Z,12.63
2022-12-13T20:04:44.624Z,13.73
2022-12-13T20:07:12.827Z,15.83
2022-12-13T20:09:41.978Z,17.80
2022-12-13T20:12:11.436Z,14.73
2022-12-13T20:14:39.501Z,12.03
2022-12-13T20:17:08.178Z,13.63
2022-12-13T20:19:36.351Z,17.00
2022-12-13T20:22:04.527Z,13.43
2022-12-13T20:24:32.700Z,15.23
2022-12-13T20:27:00.773Z,14.93
2022-12-13T20:29:30.287Z,17.37
2022-12-13T20:31:58.325Z,14.87
2022-12-13T20:34:26.383Z,13.70
2022-12-13T20:36:54.410Z,17.60
2022-12-13T20:39:22.642Z,17.23
2022-12-13T20:41:50.675Z,15.10
2022-12-13T20:44:20.243Z,19.00
2022-12-13T20:46:49.714Z,17.30
2022-12-13T20:49:17.862Z,14.90
2022-12-13T20:51:45.931Z,15.20
2022-12-13T20:54:14.026Z,19.30
2022-12-13T20:56:42.194Z,16.77
2022-12-13T20:59:13.666Z,18.37
2022-12-13T21:01:42.822Z,15.57
2022-12-13T21:04:12.818Z,19.50
2022-12-13T21:06:42.729Z,16.70
2022-12-13T21:09:12.465Z,15.60
2022-12-13T21:11:42.146Z,16.17
2022-12-13T21:14:18.791Z,20.97
2022-12-13T21:16:50.891Z,14.30
2022-12-13T21:19:24.969Z,17.00
2022-12-13T21:21:53.979Z,16.57
2022-12-13T21:24:23.952Z,14.63
2022-12-13T21:26:52.694Z,16.43
2022-12-13T21:29:20.815Z,18.87
2022-12-13T21:31:50.950Z,16.70
2022-12-13T21:34:24.531Z,15.40
2022-12-13T21:37:03.323Z,16.83
2022-12-13T21:39:31.393Z,14.87
2022-12-13T21:41:59.913Z,14.87
2022-12-13T21:44:43.842Z,15.83
2022-12-13T21:47:13.117Z,17.13
2022-12-13T21:49:48.830Z,13.73
2022-12-13T21:52:17.057Z,14.30
2022-12-13T21:54:45.097Z,17.30
2022-12-13T21:57:30.592Z,18.40
2022-12-13T21:59:58.629Z,15.20
2022-12-13T22:02:26.612Z,14.33
2022-12-13T22:04:57.395Z,15.67
2022-12-13T22:07:26.852Z,16.20
2022-12-13T22:09:55.245Z,18.07
2022-12-13T22:12:25.249Z,16.17
2022-12-13T22:14:54.218Z,16.77
2022-12-13T22:17:29.663Z,18.27
2022-12-13T22:20:02.607Z,18.67
2022-12-13T22:22:30.695Z,19.37
2022-12-13T22:24:58.741Z,14.33
2022-12-13T22:27:26.827Z,15.97
2022-12-13T22:29:56.856Z,18.03
2022-12-13T22:32:26.089Z,18.27
2022-12-13T22:34:54.143Z,18.83
2022-12-13T22:37:24.039Z,17.00
2022-12-13T22:39:52.033Z,17.23
2022-12-13T22:42:20.511Z,17.50
2022-12-13T22:44:48.749Z,16.17
2022-12-13T22:47:17.083Z,17.53
2022-12-13T22:49:45.156Z,18.80
2022-12-13T22:52:16.824Z,18.03
2022-12-13T22:54:46.243Z,16.87
2022-12-13T22:57:14.281Z,15.80
2022-12-13T22:59:42.289Z,19.53
2022-12-13T23:02:10.515Z,19.43
2022-12-13T23:04:38.677Z,17.40
2022-12-13T23:07:06.803Z,16.70
2022-12-13T23:09:34.790Z,19.07
2022-12-13T23:12:21.354Z,18.20
2022-12-13T23:14:49.382Z,18.33
2022-12-13T23:17:18.107Z,16.07
2022-12-13T23:19:50.407Z,15.80
2022-12-13T23:22:21.740Z,14.47
2022-12-13T23:24:50.372Z,20.00
2022-12-13T23:27:21.161Z,17.00
2022-12-13T23:29:49.422Z,17.20
2022-12-13T23:32:17.505Z,17.23
2022-12-13T23:34:45.493Z,17.90
2022-12-13T23:37:13.669Z,15.47
2022-12-13T23:39:41.685Z,16.53
2022-12-13T23:42:09.867Z,18.00
2022-12-13T23:44:39.303Z,18.33
2022-12-13T23:47:07.336Z,14.90
2022-12-13T23:49:35.332Z,12.87
2022-12-13T23:52:03.344Z,19.13
2022-12-13T23:54:31.352Z,17.77
2022-12-13T23:56:59.467Z,18.47
2022-12-13T23:59:29.039Z,17.60
